Time;durP1;ratioP1;P1;durP2;ratioP2;P2;SDS_P1;SDS_P2;PMS_P1;PMS_P2;Temp;Humidity;BMP_temperature;BMP_pressure;BME280_temperature;BME280_humidity;BME280_pressure;Samples;Min_cycle;Max_cycle;Signal;HPM_P1;HPM_P2
2023/07/18 00:00:30;;;;;;;22.63;20.63;;;27.90;99.90;;;;;;5086811;28;20195;-74
2023/07/18 00:02:56;;;;;;;24.23;22.03;;;27.80;99.90;;;;;;5085386;28;20662;-74
2023/07/18 00:05:22;;;;;;;24.63;22.30;;;27.80;99.90;;;;;;5086852;28;20413;-79
2023/07/18 00:07:48;;;;;;;23.53;21.23;;;27.80;99.90;;;;;;5087633;28;20485;-79
2023/07/18 00:10:18;;;;;;;24.90;21.70;;;27.70;99.90;;;;;;5084874;28;20428;-79
2023/07/18 00:12:44;;;;;;;23.83;21.60;;;27.70;99.90;;;;;;5086309;28;20456;-79
2023/07/18 00:15:11;;;;;;;27.23;21.77;;;27.60;99.90;;;;;;5086906;28;20420;-74
2023/07/18 00:17:38;;;;;;;23.50;21.40;;;27.60;99.90;;;;;;5085343;28;20766;-74
2023/07/18 00:20:09;;;;;;;23.00;20.70;;;27.60;99.90;;;;;;5086597;28;20711;-74
2023/07/18 00:22:36;;;;;;;23.00;20.70;;;27.50;99.90;;;;;;5086707;28;20432;-79
2023/07/18 00:25:02;;;;;;;22.93;20.50;;;27.50;99.90;;;;;;5086509;28;20414;-73
2023/07/18 00:27:28;;;;;;;24.30;21.93;;;27.40;99.90;;;;;;5085176;28;21029;-79
2023/07/18 00:29:55;;;;;;;22.80;20.80;;;27.40;99.90;;;;;;5085145;28;20795;-74
2023/07/18 00:32:22;;;;;;;23.57;21.10;;;27.30;99.90;;;;;;5085048;28;20520;-79
2023/07/18 00:34:49;;;;;;;23.60;21.13;;;27.30;99.90;;;;;;5086166;28;20424;-78
2023/07/18 00:37:16;;;;;;;23.10;20.93;;;27.30;99.90;;;;;;5086011;28;20483;-74
2023/07/18 00:39:41;;;;;;;24.63;22.43;;;27.20;99.90;;;;;;5086003;28;20451;-78
2023/07/18 00:42:07;;;;;;;24.07;21.87;;;27.20;99.90;;;;;;5086089;28;20441;-74
2023/07/18 00:44:33;;;;;;;23.37;21.23;;;27.20;99.90;;;;;;5084178;28;20976;-74
2023/07/18 00:47:00;;;;;;;23.30;20.80;;;27.20;99.90;;;;;;5086015;28;20768;-79
2023/07/18 00:49:26;;;;;;;23.93;21.73;;;27.10;99.90;;;;;;5086032;28;20173;-73
2023/07/18 00:51:52;;;;;;;24.40;22.10;;;27.10;99.90;;;;;;5084641;28;20436;-74
2023/07/18 00:54:20;;;;;;;23.70;21.60;;;27.00;99.90;;;;;;5084189;28;20184;-79
2023/07/18 00:56:46;;;;;;;22.43;20.33;;;27.00;99.90;;;;;;5085105;28;20456;-74
2023/07/18 00:59:16;;;;;;;21.97;19.90;;;27.00;99.90;;;;;;5085419;28;20506;-79
2023/07/18 01:01:42;;;;;;;25.60;22.80;;;27.00;99.90;;;;;;5084699;28;20449;-74
2023/07/18 01:04:08;;;;;;;24.37;21.90;;;27.00;99.90;;;;;;5085981;28;20417;-78
2023/07/18 01:06:35;;;;;;;24.10;22.00;;;27.00;99.90;;;;;;5086083;28;20409;-79
2023/07/18 01:09:01;;;;;;;23.27;21.07;;;26.90;99.90;;;;;;5085500;28;20695;-74
2023/07/18 01:11:26;;;;;;;24.23;21.63;;;26.90;99.90;;;;;;5084385;28;20998;-79
2023/07/18 01:13:52;;;;;;;23.70;21.50;;;26.90;99.90;;;;;;5083971;28;20232;-74
2023/07/18 01:16:18;;;;;;;25.17;22.47;;;26.80;99.90;;;;;;5084118;28;20267;-78
2023/07/18 01:18:44;;;;;;;23.53;21.53;;;26.70;99.90;;;;;;5085232;28;20211;-79
2023/07/18 01:21:17;;;;;;;25.20;22.23;;;26.70;99.90;;;;;;5085626;28;20180;-74
2023/07/18 01:23:45;;;;;;;24.27;22.10;;;26.60;99.90;;;;;;5085125;28;20448;-79
2023/07/18 01:26:11;;;;;;;23.90;21.70;;;26.50;99.90;;;;;;5085953;28;20816;-79
2023/07/18 01:28:37;;;;;;;24.93;22.73;;;26.50;99.90;;;;;;5085198;28;20530;-78
2023/07/18 01:31:05;;;;;;;23.80;21.50;;;26.40;99.90;;;;;;5085255;28;20405;-79
2023/07/18 01:33:31;;;;;;;25.00;22.70;;;26.40;99.90;;;;;;5084724;28;20432;-79
2023/07/18 01:35:57;;;;;;;24.23;21.97;;;26.30;99.90;;;;;;5085625;28;20408;-73
2023/07/18 01:38:29;;;;;;;26.13;21.63;;;26.30;99.90;;;;;;5085081;28;20551;-73
2023/07/18 01:41:03;;;;;;;23.27;21.07;;;26.20;99.90;;;;;;5085542;28;20250;-74
2023/07/18 01:43:29;;;;;;;23.70;21.43;;;26.20;99.90;;;;;;5082885;28;20960;-79
2023/07/18 01:45:59;;;;;;;25.03;22.63;;;26.10;99.90;;;;;;5084964;28;20463;-74
2023/07/18 01:48:25;;;;;;;24.00;21.60;;;26.10;99.90;;;;;;5083866;28;20208;-78
2023/07/18 01:50:50;;;;;;;24.17;21.73;;;26.00;99.90;;;;;;5083940;28;20420;-79
2023/07/18 01:53:16;;;;;;;23.80;21.60;;;26.00;99.90;;;;;;5083267;28;20692;-74
2023/07/18 01:55:41;;;;;;;24.50;21.97;;;26.00;99.90;;;;;;5085558;28;20253;-74
2023/07/18 01:58:07;;;;;;;23.33;21.13;;;26.00;99.90;;;;;;5083627;28;20228;-74
2023/07/18 02:00:35;;;;;;;25.00;22.83;;;26.00;99.90;;;;;;5084104;28;20544;-77
2023/07/18 02:03:01;;;;;;;23.73;21.37;;;26.00;99.90;;;;;;5083220;28;20200;-78
2023/07/18 02:05:28;;;;;;;22.50;20.40;;;26.00;99.90;;;;;;5084598;28;20412;-79
2023/07/18 02:07:54;;;;;;;23.93;21.60;;;26.00;99.90;;;;;;5083623;28;20425;-74
2023/07/18 02:10:20;;;;;;;22.23;20.13;;;26.00;99.90;;;;;;5083364;28;20421;-74
2023/07/18 02:12:51;;;;;;;22.50;20.40;;;26.00;99.90;;;;;;5083146;28;20473;-79
2023/07/18 02:15:17;;;;;;;23.37;21.20;;;26.00;99.90;;;;;;5084925;28;20416;-73
2023/07/18 02:17:43;;;;;;;23.80;21.40;;;26.00;99.90;;;;;;5083310;28;20894;-78
2023/07/18 02:20:11;;;;;;;22.93;20.63;;;25.90;99.90;;;;;;5083328;28;20470;-74
2023/07/18 02:22:40;;;;;;;22.00;19.90;;;25.80;99.90;;;;;;5083596;28;21150;-73
2023/07/18 02:25:06;;;;;;;23.27;20.97;;;25.80;99.90;;;;;;5084361;28;20448;-74
2023/07/18 02:27:34;;;;;;;23.37;20.47;;;25.80;99.90;;;;;;5083379;28;20455;-78
2023/07/18 02:30:03;;;;;;;25.00;22.53;;;25.80;99.90;;;;;;5084509;28;20423;-74
2023/07/18 02:32:30;;;;;;;22.63;20.30;;;25.80;99.90;;;;;;5084898;28;20622;-78
2023/07/18 02:34:57;;;;;;;23.60;21.47;;;25.70;99.90;;;;;;5086586;28;20433;-73
2023/07/18 02:37:26;;;;;;;23.57;19.97;;;25.70;99.90;;;;;;5087195;28;20877;-78
2023/07/18 02:39:51;;;;;;;21.93;19.83;;;25.60;99.90;;;;;;5088506;28;20412;-74
2023/07/18 02:42:17;;;;;;;22.53;20.43;;;25.60;99.90;;;;;;5088529;28;20497;-78
2023/07/18 02:44:47;;;;;;;24.37;21.93;;;25.50;99.90;;;;;;5085823;28;20180;-78
2023/07/18 02:47:14;;;;;;;25.47;21.33;;;25.60;99.90;;;;;;5088242;28;20432;-78
2023/07/18 02:49:40;;;;;;;22.93;20.63;;;25.50;99.90;;;;;;5088074;28;20917;-78
2023/07/18 02:52:07;;;;;;;23.43;20.73;;;25.50;99.90;;;;;;5088189;28;20444;-73
2023/07/18 02:54:32;;;;;;;23.23;20.93;;;25.50;99.90;;;;;;5087874;28;20921;-74
2023/07/18 02:56:58;;;;;;;23.23;21.03;;;25.40;99.90;;;;;;5088167;28;20475;-74
2023/07/18 02:59:25;;;;;;;22.10;20.00;;;25.40;99.90;;;;;;5086530;28;20522;-78
2023/07/18 03:01:54;;;;;;;23.17;20.83;;;25.40;99.90;;;;;;5085637;28;20449;-74
2023/07/18 03:04:20;;;;;;;23.63;21.40;;;25.40;99.90;;;;;;5088060;28;20796;-74
2023/07/18 03:06:53;;;;;;;23.77;21.33;;;25.30;99.90;;;;;;5088081;28;20459;-79
2023/07/18 03:09:19;;;;;;;20.93;19.03;;;25.30;99.90;;;;;;5087795;28;20617;-78
2023/07/18 03:11:46;;;;;;;21.97;19.87;;;25.20;99.90;;;;;;5086286;28;20425;-78
2023/07/18 03:14:11;;;;;;;23.30;21.17;;;25.20;99.90;;;;;;5085739;28;20517;-78
2023/07/18 03:16:40;;;;;;;22.93;20.73;;;25.20;99.90;;;;;;5086524;28;20469;-79
2023/07/18 03:19:08;;;;;;;20.77;18.67;;;25.20;99.90;;;;;;5086363;28;20274;-74
2023/07/18 03:21:33;;;;;;;24.97;20.33;;;25.20;99.90;;;;;;5086592;28;20464;-74
2023/07/18 03:24:00;;;;;;;21.80;19.80;;;25.10;99.90;;;;;;5087372;28;20408;-78
2023/07/18 03:26:26;;;;;;;22.60;20.50;;;25.10;99.90;;;;;;5087956;28;20206;-74
2023/07/18 03:28:51;;;;;;;23.60;21.27;;;25.10;99.90;;;;;;5087353;28;20436;-74
2023/07/18 03:31:17;;;;;;;23.53;21.33;;;25.10;99.90;;;;;;5086067;28;20428;-77
2023/07/18 03:33:43;;;;;;;25.10;20.80;;;25.00;99.90;;;;;;5087276;28;20444;-74
2023/07/18 03:36:08;;;;;;;22.90;20.80;;;25.00;99.90;;;;;;5086184;28;20183;-78
2023/07/18 03:38:34;;;;;;;23.27;20.73;;;25.00;99.90;;;;;;5084876;28;20224;-78
2023/07/18 03:41:00;;;;;;;22.90;20.60;;;25.10;99.90;;;;;;5085984;28;20176;-74
2023/07/18 03:43:26;;;;;;;22.53;20.53;;;25.10;99.90;;;;;;5085319;28;20501;-73
2023/07/18 03:45:52;;;;;;;23.47;20.93;;;25.20;99.90;;;;;;5084986;28;20210;-78
2023/07/18 03:48:18;;;;;;;22.17;19.77;;;25.30;99.90;;;;;;5085786;28;20204;-74
2023/07/18 03:50:44;;;;;;;23.03;20.60;;;25.40;99.90;;;;;;5096448;28;20455;-78
2023/07/18 03:53:09;;;;;;;20.67;18.47;;;25.40;99.90;;;;;;5107326;28;20195;-74
2023/07/18 03:55:35;;;;;;;23.47;20.97;;;25.50;99.90;;;;;;5107582;28;20415;-78
2023/07/18 03:58:01;;;;;;;22.10;20.10;;;25.50;99.90;;;;;;5106988;28;20485;-74
2023/07/18 04:00:27;;;;;;;21.70;19.70;;;25.40;99.90;;;;;;5106111;28;20998;-73
2023/07/18 04:02:53;;;;;;;21.93;19.30;;;25.40;99.90;;;;;;5105777;28;20431;-78
2023/07/18 04:05:19;;;;;;;21.87;19.47;;;25.40;99.90;;;;;;5106329;28;20175;-74
2023/07/18 04:07:46;;;;;;;36.30;32.40;;;25.50;99.90;;;;;;5105778;28;20760;-79
2023/07/18 04:10:12;;;;;;;24.10;21.70;;;25.40;99.90;;;;;;5107398;28;20785;-74
2023/07/18 04:12:38;;;;;;;24.23;21.83;;;25.40;99.90;;;;;;5106824;28;20736;-74
2023/07/18 04:15:06;;;;;;;22.83;20.53;;;25.40;99.90;;;;;;5106444;28;20713;-78
2023/07/18 04:17:32;;;;;;;23.93;21.73;;;25.40;99.90;;;;;;5105359;28;20995;-79
2023/07/18 04:20:01;;;;;;;22.37;20.00;;;25.50;99.90;;;;;;5105533;28;20417;-78
2023/07/18 04:22:29;;;;;;;20.63;18.63;;;25.50;99.90;;;;;;5107051;28;20203;-74
2023/07/18 04:24:55;;;;;;;20.50;18.30;;;25.60;99.90;;;;;;5106152;28;20937;-74
2023/07/18 04:27:23;;;;;;;21.90;19.63;;;25.60;99.90;;;;;;5105403;28;20456;-74
2023/07/18 04:29:49;;;;;;;20.27;18.27;;;25.60;99.90;;;;;;5106313;28;20440;-74
2023/07/18 04:32:17;;;;;;;20.90;18.80;;;25.70;99.90;;;;;;5105169;28;20878;-74
2023/07/18 04:34:43;;;;;;;21.27;18.87;;;25.80;99.90;;;;;;5104632;28;20416;-74
2023/07/18 04:37:09;;;;;;;22.80;19.30;;;25.90;99.90;;;;;;5104034;28;20872;-78
2023/07/18 04:39:35;;;;;;;21.03;18.83;;;26.00;99.90;;;;;;5104797;28;20841;-78
2023/07/18 04:42:01;;;;;;;20.47;18.37;;;26.00;99.90;;;;;;5104853;28;20214;-79
2023/07/18 04:44:27;;;;;;;20.27;18.08;;;26.10;99.90;;;;;;5103777;28;20965;-80
2023/07/18 04:46:52;;;;;;;18.13;16.33;;;26.20;99.90;;;;;;5106065;28;20195;-75
2023/07/18 04:49:19;;;;;;;19.93;18.00;;;26.30;99.90;;;;;;5101099;28;20241;-76
2023/07/18 04:51:45;;;;;;;18.83;16.93;;;26.40;99.90;;;;;;5085662;28;20262;-76
2023/07/18 04:54:10;;;;;;;19.60;17.50;;;26.60;99.90;;;;;;5083792;28;20453;-80
2023/07/18 04:56:36;;;;;;;23.73;18.27;;;26.70;99.90;;;;;;5083300;28;20437;-76
2023/07/18 04:59:02;;;;;;;18.17;16.50;;;26.80;99.90;;;;;;5082213;28;20444;-76
2023/07/18 05:01:28;;;;;;;18.17;16.43;;;27.00;99.90;;;;;;5099966;28;20287;-76
2023/07/18 05:03:54;;;;;;;17.38;15.60;;;27.20;99.90;;;;;;5102081;28;20466;-79
2023/07/18 05:06:20;;;;;;;16.20;14.57;;;27.40;99.90;;;;;;5103693;28;20531;-76
2023/07/18 05:08:46;;;;;;;15.47;13.97;;;27.60;99.90;;;;;;5103171;28;20519;-79
2023/07/18 05:11:11;;;;;;;13.73;12.63;;;27.70;99.90;;;;;;5092464;28;20630;-76
2023/07/18 05:13:37;;;;;;;14.03;12.87;;;27.80;99.90;;;;;;5105334;28;20586;-80
2023/07/18 05:16:03;;;;;;;13.83;12.63;;;27.90;99.90;;;;;;5103928;28;20537;-79
2023/07/18 05:18:29;;;;;;;13.20;12.10;;;28.10;99.90;;;;;;5093112;28;20238;-76
2023/07/18 05:20:57;;;;;;;13.33;12.03;;;28.20;99.90;;;;;;5083644;28;20590;-76
2023/07/18 05:23:23;;;;;;;13.90;12.37;;;28.40;99.90;;;;;;5085703;28;20744;-76
2023/07/18 05:25:49;;;;;;;13.73;12.40;;;28.60;99.90;;;;;;5102310;28;20413;-79
2023/07/18 05:28:15;;;;;;;14.00;12.73;;;28.80;99.90;;;;;;5104409;28;20451;-80
2023/07/18 05:30:40;;;;;;;13.60;12.40;;;28.90;99.90;;;;;;5101331;28;20521;-76
2023/07/18 05:33:06;;;;;;;12.53;11.33;;;29.00;99.90;;;;;;5102298;28;20198;-79
2023/07/18 05:35:32;;;;;;;13.03;11.83;;;29.10;99.90;;;;;;5096407;28;20568;-79
2023/07/18 05:37:58;;;;;;;14.60;12.40;;;29.20;99.90;;;;;;5101352;28;20478;-80
2023/07/18 05:40:24;;;;;;;15.83;11.90;;;29.30;99.90;;;;;;5103498;28;20258;-80
2023/07/18 05:42:50;;;;;;;11.33;10.37;;;29.30;99.90;;;;;;5102189;28;20443;-76
2023/07/18 05:45:16;;;;;;;10.87;9.97;;;29.30;99.90;;;;;;5102366;28;20748;-79
2023/07/18 05:47:42;;;;;;;11.97;10.47;;;29.50;99.90;;;;;;5100983;28;20289;-76
2023/07/18 05:50:07;;;;;;;10.47;9.50;;;29.60;99.90;;;;;;5093862;28;20182;-76
2023/07/18 05:52:34;;;;;;;9.70;8.83;;;29.50;99.90;;;;;;5084162;28;20462;-79
2023/07/18 05:55:00;;;;;;;10.70;9.80;;;29.60;99.90;;;;;;5078973;28;20335;-76
2023/07/18 05:57:26;;;;;;;10.53;9.50;;;29.60;99.90;;;;;;5089112;28;20560;-80
2023/07/18 05:59:52;;;;;;;12.40;9.10;;;29.60;99.90;;;;;;5087438;28;20429;-80
2023/07/18 06:02:19;;;;;;;12.60;8.53;;;29.60;99.90;;;;;;5081141;28;20976;-79
2023/07/18 06:04:45;;;;;;;12.00;8.63;;;29.70;99.90;;;;;;5080640;28;20591;-80
2023/07/18 06:07:12;;;;;;;35.33;24.77;;;29.80;99.90;;;;;;5080578;28;20487;-76
2023/07/18 06:09:37;;;;;;;11.53;10.33;;;30.00;99.90;;;;;;5098449;28;20648;-79
2023/07/18 06:12:04;;;;;;;8.80;7.97;;;30.10;99.90;;;;;;5092612;28;20483;-80
2023/07/18 06:14:29;;;;;;;8.93;8.13;;;30.10;99.90;;;;;;5093226;28;20287;-80
2023/07/18 06:16:55;;;;;;;8.90;7.87;;;30.20;99.90;;;;;;5097218;28;20545;-76
2023/07/18 06:19:21;;;;;;;7.77;7.10;;;30.40;99.90;;;;;;5097592;28;20243;-76
2023/07/18 06:21:48;;;;;;;8.40;7.60;;;30.40;99.90;;;;;;5100335;28;20489;-79
2023/07/18 06:24:15;;;;;;;8.33;7.50;;;30.60;99.90;;;;;;5104834;28;20215;-79
2023/07/18 06:26:41;;;;;;;9.97;7.47;;;30.70;99.90;;;;;;5089110;28;20428;-76
2023/07/18 06:29:06;;;;;;;9.10;8.17;;;30.60;99.90;;;;;;5093048;28;20449;-80
2023/07/18 06:31:33;;;;;;;9.13;6.20;;;30.50;99.90;;;;;;5097970;28;20185;-82
2023/07/18 06:33:58;;;;;;;12.77;7.20;;;30.40;99.90;;;;;;5089782;28;20198;-79
2023/07/18 06:36:25;;;;;;;19.63;8.17;;;30.40;99.90;;;;;;5107358;28;20512;-76
2023/07/18 06:38:50;;;;;;;8.10;7.20;;;30.40;99.90;;;;;;5106914;28;20191;-76
2023/07/18 06:41:16;;;;;;;10.10;7.77;;;30.50;99.90;;;;;;5106413;28;20962;-80
2023/07/18 06:43:42;;;;;;;10.80;7.43;;;30.50;99.90;;;;;;5106194;28;20817;-80
2023/07/18 06:46:08;;;;;;;9.00;7.13;;;30.40;99.90;;;;;;5101225;28;20382;-80
2023/07/18 06:48:34;;;;;;;8.77;6.63;;;30.50;99.90;;;;;;5101662;27;20437;-80
2023/07/18 06:51:02;;;;;;;7.30;6.70;;;30.40;99.90;;;;;;5084889;28;20294;-76
2023/07/18 06:53:27;;;;;;;8.10;7.30;;;30.50;99.90;;;;;;5088544;28;20347;-80
2023/07/18 06:55:54;;;;;;;7.63;6.97;;;30.60;99.90;;;;;;5101943;28;20435;-76
2023/07/18 06:58:20;;;;;;;8.07;7.27;;;30.70;99.90;;;;;;5096018;28;20213;-80
2023/07/18 07:00:46;;;;;;;9.60;6.67;;;30.90;99.90;;;;;;5103264;28;21012;-76
2023/07/18 07:03:13;;;;;;;6.97;6.20;;;31.00;99.90;;;;;;5102942;28;20378;-76
2023/07/18 07:05:42;;;;;;;6.73;6.17;;;30.90;99.90;;;;;;5101462;27;20419;-80
2023/07/18 07:08:09;;;;;;;6.93;6.33;;;31.00;99.90;;;;;;5102552;28;20446;-79
2023/07/18 07:10:41;;;;;;;9.50;6.97;;;31.10;99.90;;;;;;5093075;28;20428;-78
2023/07/18 07:13:08;;;;;;;7.87;6.37;;;31.20;99.90;;;;;;5101862;28;21026;-80
2023/07/18 07:15:34;;;;;;;7.50;6.80;;;31.40;99.90;;;;;;5091345;28;21143;-80
2023/07/18 07:18:01;;;;;;;6.43;5.83;;;31.30;99.90;;;;;;5083063;28;20827;-79
2023/07/18 07:20:28;;;;;;;6.30;5.73;;;31.20;99.90;;;;;;5082829;28;20421;-76
2023/07/18 07:22:54;;;;;;;8.20;6.53;;;31.30;99.90;;;;;;5087835;28;20488;-77
2023/07/18 07:25:20;;;;;;;7.17;6.47;;;31.30;99.90;;;;;;5098707;28;20821;-80
2023/07/18 07:27:47;;;;;;;14.90;11.40;;;31.40;99.90;;;;;;5097550;28;20432;-76
2023/07/18 07:30:17;;;;;;;7.13;6.30;;;31.60;99.90;;;;;;5090047;28;20173;-76
2023/07/18 07:32:53;;;;;;;6.90;6.30;;;31.90;99.90;;;;;;5082727;28;20464;-76
2023/07/18 07:35:20;;;;;;;7.67;6.53;;;32.10;99.90;;;;;;5082908;28;20990;-80
2023/07/18 07:37:47;;;;;;;7.20;6.50;;;32.30;99.90;;;;;;5087365;28;20946;-76
2023/07/18 07:40:13;;;;;;;6.30;5.70;;;32.40;99.90;;;;;;5082478;28;20464;-80
2023/07/18 07:42:40;;;;;;;7.40;6.70;;;32.60;99.90;;;;;;5082190;28;20479;-76
2023/07/18 07:45:09;;;;;;;6.40;5.40;;;32.70;99.90;;;;;;5089223;28;20515;-80
2023/07/18 07:47:35;;;;;;;40.73;29.93;;;32.80;99.90;;;;;;5101260;28;20901;-75
2023/07/18 07:50:02;;;;;;;8.23;7.37;;;33.00;98.90;;;;;;5101908;28;20463;-75
2023/07/18 07:52:28;;;;;;;6.25;5.40;;;33.00;97.90;;;;;;5103655;28;20758;-80
2023/07/18 07:54:54;;;;;;;6.73;5.30;;;33.00;97.60;;;;;;5100793;28;20180;-80
2023/07/18 07:57:20;;;;;;;12.43;6.10;;;33.00;97.50;;;;;;5100179;28;20483;-76
2023/07/18 07:59:46;;;;;;;6.73;5.50;;;33.10;98.00;;;;;;5101360;28;21132;-80
2023/07/18 08:02:14;;;;;;;7.33;5.63;;;33.10;97.70;;;;;;5103419;28;21221;-77
2023/07/18 08:04:41;;;;;;;7.13;5.20;;;33.20;97.60;;;;;;5104263;28;20176;-80
2023/07/18 08:07:08;;;;;;;8.80;4.70;;;33.20;97.10;;;;;;5103572;28;20451;-77
2023/07/18 08:09:33;;;;;;;9.53;5.10;;;33.40;96.60;;;;;;5096186;28;20440;-76
2023/07/18 08:11:59;;;;;;;8.03;5.30;;;33.40;96.80;;;;;;5103400;28;20426;-80
2023/07/18 08:14:25;;;;;;;6.30;5.70;;;33.60;95.70;;;;;;5102581;28;20212;-80
2023/07/18 08:16:51;;;;;;;9.37;4.80;;;33.60;96.30;;;;;;5101957;28;20208;-80
2023/07/18 08:19:17;;;;;;;13.00;5.63;;;33.70;94.80;;;;;;5093578;28;20466;-77
2023/07/18 08:21:43;;;;;;;10.57;5.50;;;33.80;95.10;;;;;;5097778;28;20547;-80
2023/07/18 08:24:08;;;;;;;6.50;5.20;;;33.90;94.30;;;;;;5098998;28;20442;-80
2023/07/18 08:26:34;;;;;;;5.93;5.10;;;34.00;93.90;;;;;;5091027;28;20272;-81
2023/07/18 08:29:00;;;;;;;6.10;4.67;;;34.00;94.60;;;;;;5095432;28;20437;-77
2023/07/18 08:31:25;;;;;;;6.27;5.20;;;34.10;94.20;;;;;;5081940;27;20176;-80
2023/07/18 08:33:51;;;;;;;7.57;5.47;;;34.20;93.40;;;;;;5085771;28;20200;-80
2023/07/18 08:36:17;;;;;;;6.93;4.73;;;34.30;93.60;;;;;;5087319;28;20188;-80
2023/07/18 08:38:49;;;;;;;5.40;4.90;;;34.30;94.40;;;;;;5085088;28;20223;-77
2023/07/18 08:41:17;;;;;;;9.40;5.60;;;34.40;94.70;;;;;;5080955;28;20168;-77
2023/07/18 08:43:44;;;;;;;5.40;4.90;;;34.50;93.30;;;;;;5089908;28;20968;-78
2023/07/18 08:46:13;;;;;;;6.07;4.77;;;34.70;94.20;;;;;;5099320;28;20936;-76
2023/07/18 08:48:41;;;;;;;9.23;5.70;;;34.80;93.30;;;;;;5093203;27;20435;-80
2023/07/18 08:51:08;;;;;;;5.50;5.00;;;34.80;93.40;;;;;;5099065;27;20456;-77
2023/07/18 08:53:34;;;;;;;5.33;4.83;;;34.70;94.40;;;;;;5114720;27;20432;-77
2023/07/18 08:56:02;;;;;;;7.50;4.70;;;34.80;93.20;;;;;;5098477;27;20436;-80
2023/07/18 08:58:28;;;;;;;5.60;5.10;;;34.80;93.60;;;;;;5086246;27;20465;-77
2023/07/18 09:00:53;;;;;;;5.60;5.10;;;35.00;92.50;;;;;;5099264;27;20446;-77
2023/07/18 09:03:19;;;;;;;5.87;5.37;;;35.10;92.90;;;;;;5099353;27;20202;-80
2023/07/18 09:05:45;;;;;;;6.40;4.80;;;35.20;93.00;;;;;;5081306;28;20447;-77
2023/07/18 09:08:11;;;;;;;5.33;4.90;;;35.20;93.20;;;;;;5095418;28;20287;-80
2023/07/18 09:10:36;;;;;;;5.33;4.93;;;35.30;91.80;;;;;;5081222;28;20187;-80
2023/07/18 09:13:07;;;;;;;5.13;4.63;;;35.40;91.20;;;;;;5097985;28;20280;-77
2023/07/18 09:15:37;;;;;;;4.70;4.30;;;35.50;91.80;;;;;;5098765;28;20187;-80
2023/07/18 09:18:06;;;;;;;4.90;4.40;;;35.60;91.00;;;;;;5092717;28;20561;-80
2023/07/18 09:20:33;;;;;;;7.43;5.30;;;35.50;90.80;;;;;;5083937;28;20923;-80
2023/07/18 09:23:02;;;;;;;5.27;4.87;;;35.30;90.60;;;;;;5092615;28;20448;-76
2023/07/18 09:25:29;;;;;;;5.50;4.13;;;35.40;91.50;;;;;;5086013;28;20436;-77
2023/07/18 09:27:55;;;;;;;5.50;5.00;;;35.60;90.90;;;;;;5080421;28;20883;-80
2023/07/18 09:30:42;;;;;;;5.83;5.13;;;35.80;91.00;;;;;;5088719;28;20435;-77
2023/07/18 09:33:07;;;;;;;6.07;5.47;;;35.90;91.90;;;;;;5077170;28;20432;-80
2023/07/18 09:35:38;;;;;;;61.20;54.47;;;35.90;90.00;;;;;;5078001;28;20412;-80
2023/07/18 09:38:08;;;;;;;5.37;4.77;;;36.00;90.30;;;;;;5085226;28;20401;-81
2023/07/18 09:40:36;;;;;;;5.83;4.87;;;36.10;91.10;;;;;;5087685;28;20432;-81
2023/07/18 09:43:05;;;;;;;4.90;4.50;;;36.10;91.20;;;;;;5087574;28;20442;-77
2023/07/18 09:45:31;;;;;;;5.10;4.60;;;36.20;91.20;;;;;;5092854;28;20737;-78
2023/07/18 09:47:58;;;;;;;4.50;4.10;;;36.30;87.00;;;;;;5087509;28;20524;-77
2023/07/18 09:50:26;;;;;;;9.90;4.80;;;36.30;84.60;;;;;;5091672;28;20538;-77
2023/07/18 09:52:56;;;;;;;5.00;4.50;;;36.30;87.80;;;;;;5094759;28;20725;-81
2023/07/18 09:55:27;;;;;;;5.30;4.80;;;36.30;88.30;;;;;;5088798;28;20443;-77
2023/07/18 09:57:56;;;;;;;5.07;4.57;;;36.20;88.50;;;;;;5098635;28;20784;-77
2023/07/18 10:00:26;;;;;;;4.47;4.03;;;36.30;87.90;;;;;;5098741;28;20949;-81
2023/07/18 10:02:52;;;;;;;5.50;5.00;;;36.30;87.00;;;;;;5081449;28;20445;-81
2023/07/18 10:05:19;;;;;;;5.90;4.47;;;36.40;80.80;;;;;;5086293;28;20908;-81
2023/07/18 10:07:46;;;;;;;5.27;4.77;;;36.40;86.00;;;;;;5099698;28;20697;-77
2023/07/18 10:10:12;;;;;;;5.43;4.43;;;36.40;88.00;;;;;;5085548;28;20774;-77
2023/07/18 10:12:58;;;;;;;5.30;4.80;;;36.40;86.60;;;;;;5076951;28;21089;-81
2023/07/18 10:15:25;;;;;;;6.90;5.03;;;36.50;87.40;;;;;;5083684;28;20644;-81
2023/07/18 10:17:50;;;;;;;5.83;4.57;;;36.70;82.30;;;;;;5096789;28;20233;-77
2023/07/18 10:20:22;;;;;;;4.83;4.43;;;36.80;85.40;;;;;;5089123;28;20425;-77
2023/07/18 10:22:57;;;;;;;5.53;5.00;;;36.80;86.50;;;;;;5079131;28;20211;-81
2023/07/18 10:25:26;;;;;;;6.63;4.50;;;36.70;88.00;;;;;;5097847;28;20426;-81
2023/07/18 10:27:52;;;;;;;5.37;4.87;;;36.60;85.20;;;;;;5100232;28;20810;-81
2023/07/18 10:30:20;;;;;;;5.10;4.70;;;36.50;87.10;;;;;;5096088;28;20463;-80
2023/07/18 10:32:53;;;;;;;4.63;4.23;;;36.50;87.50;;;;;;5086443;28;20795;-80
2023/07/18 10:35:20;;;;;;;5.30;4.80;;;36.60;87.30;;;;;;5085725;28;20811;-77
2023/07/18 10:37:53;;;;;;;4.40;4.03;;;36.60;87.00;;;;;;5092691;28;20484;-77
2023/07/18 10:40:36;;;;;;;5.20;4.70;;;36.60;84.90;;;;;;5078498;28;21025;-80
2023/07/18 10:43:04;;;;;;;5.10;4.60;;;36.70;84.40;;;;;;5097001;28;20455;-77
2023/07/18 10:45:36;;;;;;;5.60;5.00;;;36.70;82.40;;;;;;5087952;28;20980;-78
2023/07/18 10:48:12;;;;;;;6.50;4.60;;;36.70;80.50;;;;;;5089552;28;20963;-77
2023/07/18 10:50:38;;;;;;;6.47;4.57;;;36.80;79.30;;;;;;5089435;28;20428;-80
2023/07/18 10:53:05;;;;;;;4.60;4.20;;;36.70;78.30;;;;;;5086606;28;20452;-80
2023/07/18 10:55:31;;;;;;;4.80;4.13;;;36.70;79.20;;;;;;5095533;28;20509;-80
2023/07/18 10:57:56;;;;;;;4.27;3.87;;;36.80;78.40;;;;;;5093523;27;20570;-76
2023/07/18 11:00:24;;;;;;;5.70;5.10;;;36.80;81.20;;;;;;5093744;28;20434;-77
2023/07/18 11:02:50;;;;;;;4.93;4.43;;;36.90;83.40;;;;;;5104210;28;20192;-77
2023/07/18 11:05:16;;;;;;;5.03;4.03;;;36.70;84.60;;;;;;5102945;28;21014;-80
2023/07/18 11:07:46;;;;;;;5.40;4.23;;;36.60;82.30;;;;;;5099672;28;20858;-81
2023/07/18 11:10:13;;;;;;;8.73;5.03;;;36.60;84.80;;;;;;5103869;27;20663;-77
2023/07/18 11:12:40;;;;;;;8.50;4.80;;;36.20;86.70;;;;;;5102654;28;21105;-77
2023/07/18 11:15:08;;;;;;;8.83;4.13;;;35.90;88.30;;;;;;5089036;28;20923;-77
2023/07/18 11:17:34;;;;;;;5.53;4.73;;;35.40;89.50;;;;;;5091729;28;20491;-81
2023/07/18 11:20:02;;;;;;;5.93;4.93;;;35.10;88.10;;;;;;5102737;28;20415;-77
2023/07/18 11:22:29;;;;;;;6.20;4.50;;;35.20;87.50;;;;;;5100603;28;20524;-80
2023/07/18 11:24:55;;;;;;;4.93;4.57;;;35.50;87.80;;;;;;5095884;28;20445;-76
2023/07/18 11:27:29;;;;;;;6.57;4.50;;;35.70;85.90;;;;;;5089969;28;20917;-77
2023/07/18 11:29:59;;;;;;;5.53;4.50;;;35.90;84.50;;;;;;5096168;28;20433;-81
2023/07/18 11:32:32;;;;;;;5.53;4.43;;;36.10;78.20;;;;;;5096699;28;20644;-77
2023/07/18 11:34:59;;;;;;;5.20;4.80;;;36.30;80.10;;;;;;5102781;27;20940;-81
2023/07/18 11:37:25;;;;;;;5.20;4.70;;;36.40;83.40;;;;;;5100449;28;20780;-76
2023/07/18 11:39:53;;;;;;;5.50;5.00;;;36.40;85.40;;;;;;5102654;27;20420;-80
2023/07/18 11:42:20;;;;;;;5.33;4.80;;;36.30;85.40;;;;;;5094714;28;20800;-81
2023/07/18 11:44:45;;;;;;;5.10;4.60;;;36.30;85.40;;;;;;5091538;27;21013;-81
2023/07/18 11:47:12;;;;;;;4.20;3.90;;;36.30;80.00;;;;;;5095003;27;20795;-81
2023/07/18 11:49:38;;;;;;;7.27;4.50;;;36.10;86.20;;;;;;5096408;27;20206;-81
2023/07/18 11:52:05;;;;;;;4.40;4.00;;;36.20;85.10;;;;;;5099698;27;20463;-81
2023/07/18 11:54:35;;;;;;;4.93;4.47;;;36.10;85.10;;;;;;5085656;27;20430;-78
2023/07/18 11:57:02;;;;;;;4.80;4.30;;;36.20;82.30;;;;;;5099027;28;21121;-77
2023/07/18 11:59:28;;;;;;;5.70;4.23;;;36.20;85.50;;;;;;5104075;28;20511;-77
2023/07/18 12:01:54;;;;;;;5.87;4.03;;;36.10;85.60;;;;;;5097893;28;20528;-77
2023/07/18 12:04:19;;;;;;;5.30;4.80;;;36.10;86.20;;;;;;5094510;28;20175;-76
2023/07/18 12:06:46;;;;;;;6.40;4.87;;;36.10;86.10;;;;;;5090641;28;20229;-83
2023/07/18 12:09:12;;;;;;;5.23;4.73;;;36.10;81.00;;;;;;5089106;28;20795;-81
2023/07/18 12:11:38;;;;;;;6.37;4.87;;;36.20;81.60;;;;;;5095235;28;20472;-77
2023/07/18 12:14:06;;;;;;;4.87;4.33;;;36.30;82.30;;;;;;5102334;28;20216;-78
2023/07/18 12:16:32;;;;;;;5.23;4.73;;;36.40;83.30;;;;;;5101406;28;20507;-77
2023/07/18 12:18:57;;;;;;;6.00;4.40;;;36.40;85.20;;;;;;5097932;27;21208;-78
2023/07/18 12:21:23;;;;;;;5.07;4.67;;;36.20;87.40;;;;;;5123105;27;20966;-77
2023/07/18 12:23:49;;;;;;;6.13;5.13;;;36.30;84.00;;;;;;5124427;27;20194;-77
2023/07/18 12:26:15;;;;;;;7.03;4.40;;;36.40;77.90;;;;;;5095810;27;20309;-82
2023/07/18 12:28:40;;;;;;;5.93;4.93;;;36.50;83.80;;;;;;5090019;28;20256;-77
2023/07/18 12:31:07;;;;;;;5.20;4.63;;;36.60;84.60;;;;;;5098521;28;20771;-82
2023/07/18 12:33:33;;;;;;;6.40;5.00;;;36.70;80.20;;;;;;5099766;27;20196;-81